sensor_id;sensor_type;location;lat;lon;timestamp;pressure;altitude;pressure_sealevel;temperature;humidity
57086;BME280;42964;42.910;23.792;2024-01-15T00:03:12;97060.41;;;-0.25;61.07
57086;BME280;42964;42.910;23.792;2024-01-15T00:08:11;97061.44;;;-0.20;60.75
57086;BME280;42964;42.910;23.792;2024-01-15T00:13:10;97056.59;;;-0.40;61.62
57086;BME280;42964;42.910;23.792;2024-01-15T00:18:09;97046.13;;;-0.49;61.37
57086;BME280;42964;42.910;23.792;2024-01-15T00:23:08;97057.56;;;-0.36;61.30
57086;BME280;42964;42.910;23.792;2024-01-15T00:28:07;96844.50;;;-1.73;61.26
57086;BME280;42964;42.910;23.792;2024-01-15T00:33:06;97048.38;;;-0.58;61.46
57086;BME280;42964;42.910;23.792;2024-01-15T00:38:05;97055.31;;;-0.54;62.08
57086;BME280;42964;42.910;23.792;2024-01-15T00:43:04;97025.53;;;-0.84;62.24
57086;BME280;42964;42.910;23.792;2024-01-15T00:48:06;97053.47;;;-0.58;62.52
57086;BME280;42964;42.910;23.792;2024-01-15T00:53:05;97016.50;;;-0.74;62.84
57086;BME280;42964;42.910;23.792;2024-01-15T00:58:04;97063.66;;;-0.58;64.14
57086;BME280;42964;42.910;23.792;2024-01-15T01:03:03;97034.91;;;-0.55;63.67
57086;BME280;42964;42.910;23.792;2024-01-15T01:08:02;97037.81;;;-0.70;65.09
57086;BME280;42964;42.910;23.792;2024-01-15T01:13:01;97041.47;;;-0.62;66.06
57086;BME280;42964;42.910;23.792;2024-01-15T01:18:00;97013.59;;;-0.85;66.01
57086;BME280;42964;42.910;23.792;2024-01-15T01:22:59;97054.38;;;-0.56;65.70
57086;BME280;42964;42.910;23.792;2024-01-15T01:27:58;97045.50;;;-0.69;65.76
57086;BME280;42964;42.910;23.792;2024-01-15T01:32:57;96966.09;;;-1.10;65.35
57086;BME280;42964;42.910;23.792;2024-01-15T01:37:56;97039.09;;;-0.56;65.87
57086;BME280;42964;42.910;23.792;2024-01-15T01:42:55;97005.66;;;-0.94;66.48
57086;BME280;42964;42.910;23.792;2024-01-15T01:47:54;97034.97;;;-0.80;67.53
57086;BME280;42964;42.910;23.792;2024-01-15T01:52:53;96949.22;;;-1.35;67.30
57086;BME280;42964;42.910;23.792;2024-01-15T01:57:52;97008.06;;;-0.98;67.54
57086;BME280;42964;42.910;23.792;2024-01-15T02:02:52;96989.03;;;-1.10;67.90
57086;BME280;42964;42.910;23.792;2024-01-15T02:07:51;97010.03;;;-0.90;67.51
57086;BME280;42964;42.910;23.792;2024-01-15T02:12:50;97000.50;;;-0.95;67.96
57086;BME280;42964;42.910;23.792;2024-01-15T02:17:59;96984.81;;;-1.09;67.53
57086;BME280;42964;42.910;23.792;2024-01-15T02:23:13;96990.06;;;-1.05;67.74
57086;BME280;42964;42.910;23.792;2024-01-15T02:28:16;97000.13;;;-1.08;67.93
57086;BME280;42964;42.910;23.792;2024-01-15T02:33:15;96955.25;;;-1.31;68.17
57086;BME280;42964;42.910;23.792;2024-01-15T02:38:14;96966.59;;;-1.22;69.59
57086;BME280;42964;42.910;23.792;2024-01-15T02:43:13;96967.19;;;-1.29;68.70
57086;BME280;42964;42.910;23.792;2024-01-15T02:48:12;96967.66;;;-1.15;68.35
57086;BME280;42964;42.910;23.792;2024-01-15T02:53:11;96899.09;;;-1.37;68.91
57086;BME280;42964;42.910;23.792;2024-01-15T02:58:10;96940.50;;;-1.14;68.91
57086;BME280;42964;42.910;23.792;2024-01-15T03:03:09;96915.59;;;-1.25;68.65
57086;BME280;42964;42.910;23.792;2024-01-15T03:08:08;96909.56;;;-1.27;69.09
57086;BME280;42964;42.910;23.792;2024-01-15T03:13:07;96903.69;;;-1.26;69.72
57086;BME280;42964;42.910;23.792;2024-01-15T03:18:08;96903.88;;;-1.19;69.97
57086;BME280;42964;42.910;23.792;2024-01-15T03:23:07;96881.41;;;-1.33;69.49
57086;BME280;42964;42.910;23.792;2024-01-15T03:28:06;96920.06;;;-1.17;69.03
57086;BME280;42964;42.910;23.792;2024-01-15T03:33:05;96884.97;;;-1.26;69.64
57086;BME280;42964;42.910;23.792;2024-01-15T03:38:05;96889.66;;;-1.13;70.02
57086;BME280;42964;42.910;23.792;2024-01-15T03:43:04;96865.56;;;-1.51;71.35
57086;BME280;42964;42.910;23.792;2024-01-15T03:48:04;96905.00;;;-1.10;70.65
57086;BME280;42964;42.910;23.792;2024-01-15T03:53:03;96887.53;;;-0.99;69.99
57086;BME280;42964;42.910;23.792;2024-01-15T03:58:01;96846.72;;;-1.29;70.18
57086;BME280;42964;42.910;23.792;2024-01-15T04:03:00;96774.31;;;-1.68;69.96
57086;BME280;42964;42.910;23.792;2024-01-15T04:07:59;96879.69;;;-1.05;69.84
57086;BME280;42964;42.910;23.792;2024-01-15T04:12:58;96852.88;;;-1.23;70.22
57086;BME280;42964;42.910;23.792;2024-01-15T04:17:58;96870.06;;;-1.15;69.46
57086;BME280;42964;42.910;23.792;2024-01-15T04:22:57;96893.91;;;-1.12;70.79
57086;BME280;42964;42.910;23.792;2024-01-15T04:27:56;96883.41;;;-1.23;70.98
57086;BME280;42964;42.910;23.792;2024-01-15T04:32:55;96855.69;;;-1.40;71.54
57086;BME280;42964;42.910;23.792;2024-01-15T04:37:54;96864.41;;;-1.34;70.92
57086;BME280;42964;42.910;23.792;2024-01-15T04:42:54;96803.63;;;-1.52;70.86
57086;BME280;42964;42.910;23.792;2024-01-15T04:47:53;96852.44;;;-1.09;70.73
57086;BME280;42964;42.910;23.792;2024-01-15T04:52:52;96863.34;;;-1.13;70.84
57086;BME280;42964;42.910;23.792;2024-01-15T04:57:51;96860.66;;;-1.18;71.18
57086;BME280;42964;42.910;23.792;2024-01-15T05:02:50;96845.00;;;-1.30;71.88
57086;BME280;42964;42.910;23.792;2024-01-15T05:07:49;96855.63;;;-1.15;71.21
57086;BME280;42964;42.910;23.792;2024-01-15T05:12:47;96860.69;;;-1.16;70.92
57086;BME280;42964;42.910;23.792;2024-01-15T05:17:46;96849.41;;;-1.25;71.31
57086;BME280;42964;42.910;23.792;2024-01-15T05:22:45;96856.22;;;-1.24;72.03
57086;BME280;42964;42.910;23.792;2024-01-15T05:27:44;96738.88;;;-1.90;72.03
57086;BME280;42964;42.910;23.792;2024-01-15T05:32:43;96848.50;;;-1.27;72.12
57086;BME280;42964;42.910;23.792;2024-01-15T05:37:44;96838.31;;;-1.27;71.92
57086;BME280;42964;42.910;23.792;2024-01-15T05:42:43;96831.53;;;-1.26;71.80
57086;BME280;42964;42.910;23.792;2024-01-15T05:47:42;96811.31;;;-1.50;72.18
57086;BME280;42964;42.910;23.792;2024-01-15T05:52:42;96795.25;;;-1.48;71.70
57086;BME280;42964;42.910;23.792;2024-01-15T05:57:41;96626.16;;;-2.46;71.71
57086;BME280;42964;42.910;23.792;2024-01-15T06:02:40;96818.59;;;-1.34;72.72
57086;BME280;42964;42.910;23.792;2024-01-15T06:07:39;96813.72;;;-1.26;72.07
57086;BME280;42964;42.910;23.792;2024-01-15T06:12:38;96821.31;;;-1.28;72.08
57086;BME280;42964;42.910;23.792;2024-01-15T06:17:37;96800.41;;;-1.46;72.82
57086;BME280;42964;42.910;23.792;2024-01-15T06:22:37;96693.09;;;-1.90;72.91
57086;BME280;42964;42.910;23.792;2024-01-15T06:27:37;96813.69;;;-1.28;73.94
57086;BME280;42964;42.910;23.792;2024-01-15T06:32:36;96818.09;;;-1.22;73.59
57086;BME280;42964;42.910;23.792;2024-01-15T06:37:35;96806.88;;;-0.98;72.36
57086;BME280;42964;42.910;23.792;2024-01-15T06:42:34;96794.41;;;-0.89;72.64
57086;BME280;42964;42.910;23.792;2024-01-15T06:47:33;96796.44;;;-0.77;71.91
57086;BME280;42964;42.910;23.792;2024-01-15T06:52:32;96758.97;;;-0.82;72.34
57086;BME280;42964;42.910;23.792;2024-01-15T06:57:31;96813.28;;;-0.19;71.76
57086;BME280;42964;42.910;23.792;2024-01-15T07:02:30;96807.09;;;0.04;71.41
57086;BME280;42964;42.910;23.792;2024-01-15T07:07:29;96818.88;;;0.34;71.12
57086;BME280;42964;42.910;23.792;2024-01-15T07:12:28;96799.41;;;0.76;70.41
57086;BME280;42964;42.910;23.792;2024-01-15T07:17:27;96787.28;;;1.08;67.83
57086;BME280;42964;42.910;23.792;2024-01-15T07:22:26;96769.56;;;1.16;67.16
57086;BME280;42964;42.910;23.792;2024-01-15T07:27:25;96791.41;;;1.44;66.55
57086;BME280;42964;42.910;23.792;2024-01-15T07:32:24;96767.78;;;1.57;66.50
57086;BME280;42964;42.910;23.792;2024-01-15T07:37:23;96771.75;;;1.90;65.02
57086;BME280;42964;42.910;23.792;2024-01-15T07:42:22;96783.47;;;2.27;65.10
57086;BME280;42964;42.910;23.792;2024-01-15T07:47:21;96762.69;;;2.09;63.11
57086;BME280;42964;42.910;23.792;2024-01-15T07:52:20;96759.44;;;2.17;62.59
57086;BME280;42964;42.910;23.792;2024-01-15T07:57:19;96734.41;;;2.56;62.35
57086;BME280;42964;42.910;23.792;2024-01-15T08:02:18;96737.38;;;2.87;59.75
57086;BME280;42964;42.910;23.792;2024-01-15T08:07:17;96738.78;;;3.35;58.05
57086;BME280;42964;42.910;23.792;2024-01-15T08:12:16;96759.81;;;3.82;56.65
57086;BME280;42964;42.910;23.792;2024-01-15T08:17:15;96753.06;;;3.95;56.35
57086;BME280;42964;42.910;23.792;2024-01-15T08:22:15;96747.44;;;4.41;52.07
57086;BME280;42964;42.910;23.792;2024-01-15T08:27:14;96745.28;;;5.07;49.71
57086;BME280;42964;42.910;23.792;2024-01-15T08:32:13;96735.13;;;5.58;47.75
57086;BME280;42964;42.910;23.792;2024-01-15T08:37:14;96658.81;;;5.57;45.87
57086;BME280;42964;42.910;23.792;2024-01-15T08:42:13;96713.75;;;6.20;44.55
57086;BME280;42964;42.910;23.792;2024-01-15T08:47:12;96673.38;;;6.37;42.82
57086;BME280;42964;42.910;23.792;2024-01-15T08:52:11;96693.03;;;6.80;42.69
57086;BME280;42964;42.910;23.792;2024-01-15T08:57:10;96679.19;;;6.98;41.80
57086;BME280;42964;42.910;23.792;2024-01-15T09:02:10;96667.91;;;7.19;41.19
57086;BME280;42964;42.910;23.792;2024-01-15T09:07:10;96637.88;;;7.04;40.45
57086;BME280;42964;42.910;23.792;2024-01-15T09:12:09;96667.81;;;7.40;41.16
57086;BME280;42964;42.910;23.792;2024-01-15T09:17:07;96657.38;;;7.60;40.31
57086;BME280;42964;42.910;23.792;2024-01-15T09:22:07;96649.25;;;8.06;39.91
57086;BME280;42964;42.910;23.792;2024-01-15T09:27:06;96594.38;;;7.80;38.50
57086;BME280;42964;42.910;23.792;2024-01-15T09:32:05;96570.13;;;7.96;38.58
57086;BME280;42964;42.910;23.792;2024-01-15T09:37:04;96587.84;;;8.32;38.56
57086;BME280;42964;42.910;23.792;2024-01-15T09:42:04;96597.59;;;8.06;38.41
57086;BME280;42964;42.910;23.792;2024-01-15T09:47:04;96580.53;;;7.87;38.96
57086;BME280;42964;42.910;23.792;2024-01-15T09:52:04;96588.25;;;7.93;38.70
57086;BME280;42964;42.910;23.792;2024-01-15T09:57:04;96577.03;;;7.94;39.15
57086;BME280;42964;42.910;23.792;2024-01-15T10:02:03;96595.63;;;8.30;39.14
57086;BME280;42964;42.910;23.792;2024-01-15T10:07:03;96588.44;;;8.57;38.51
57086;BME280;42964;42.910;23.792;2024-01-15T10:12:04;96569.41;;;8.61;39.03
57086;BME280;42964;42.910;23.792;2024-01-15T10:17:15;96555.25;;;8.89;39.44
57086;BME280;42964;42.910;23.792;2024-01-15T10:22:14;96572.28;;;9.06;38.28
57086;BME280;42964;42.910;23.792;2024-01-15T10:27:15;96553.84;;;9.27;37.69
57086;BME280;42964;42.910;23.792;2024-01-15T10:32:14;96527.91;;;9.32;37.03
57086;BME280;42964;42.910;23.792;2024-01-15T10:37:14;96529.34;;;9.51;37.04
57086;BME280;42964;42.910;23.792;2024-01-15T10:42:13;96510.78;;;9.76;37.31
57086;BME280;42964;42.910;23.792;2024-01-15T10:47:12;96492.38;;;9.90;36.53
57086;BME280;42964;42.910;23.792;2024-01-15T10:52:11;96450.13;;;9.86;35.52
57086;BME280;42964;42.910;23.792;2024-01-15T10:57:11;96482.91;;;10.32;36.54
57086;BME280;42964;42.910;23.792;2024-01-15T11:02:10;96468.22;;;10.33;36.74
57086;BME280;42964;42.910;23.792;2024-01-15T11:07:10;96415.88;;;10.15;36.52
57086;BME280;42964;42.910;23.792;2024-01-15T11:12:12;96445.22;;;10.16;35.68
57086;BME280;42964;42.910;23.792;2024-01-15T11:17:12;96427.06;;;10.17;35.84
57086;BME280;42964;42.910;23.792;2024-01-15T11:27:50;96478.16;;;10.54;35.86
57086;BME280;42964;42.910;23.792;2024-01-15T11:32:50;96449.88;;;10.42;36.07
57086;BME280;42964;42.910;23.792;2024-01-15T11:42:51;96424.91;;;10.38;36.47
57086;BME280;42964;42.910;23.792;2024-01-15T11:48:13;96336.16;;;9.85;36.57
57086;BME280;42964;42.910;23.792;2024-01-15T11:53:36;96438.75;;;10.37;36.94
57086;BME280;42964;42.910;23.792;2024-01-15T11:58:38;96367.72;;;10.04;36.24
57086;BME280;42964;42.910;23.792;2024-01-15T12:03:37;96415.22;;;10.45;37.00
57086;BME280;42964;42.910;23.792;2024-01-15T12:08:36;96421.28;;;10.45;36.63
57086;BME280;42964;42.910;23.792;2024-01-15T12:13:35;96423.97;;;10.40;37.04
57086;BME280;42964;42.910;23.792;2024-01-15T12:18:34;96375.78;;;10.30;37.69
57086;BME280;42964;42.910;23.792;2024-01-15T12:23:33;96399.97;;;10.70;37.58
57086;BME280;42964;42.910;23.792;2024-01-15T12:28:32;96363.53;;;10.74;37.64
57086;BME280;42964;42.910;23.792;2024-01-15T12:33:33;96379.50;;;10.59;38.45
57086;BME280;42964;42.910;23.792;2024-01-15T12:38:32;96358.13;;;10.83;39.18
57086;BME280;42964;42.910;23.792;2024-01-15T12:43:30;96346.00;;;10.84;38.99
57086;BME280;42964;42.910;23.792;2024-01-15T12:48:29;96337.66;;;11.07;38.97
57086;BME280;42964;42.910;23.792;2024-01-15T12:53:28;96333.94;;;11.17;38.54
57086;BME280;42964;42.910;23.792;2024-01-15T12:58:27;96329.78;;;11.43;37.66
57086;BME280;42964;42.910;23.792;2024-01-15T13:03:26;96356.41;;;11.53;38.25
57086;BME280;42964;42.910;23.792;2024-01-15T13:08:25;96358.00;;;11.57;38.14
57086;BME280;42964;42.910;23.792;2024-01-15T13:13:27;96368.38;;;11.57;38.39
57086;BME280;42964;42.910;23.792;2024-01-15T13:18:26;96342.03;;;11.39;38.09
57086;BME280;42964;42.910;23.792;2024-01-15T13:23:25;96341.22;;;11.37;37.96
57086;BME280;42964;42.910;23.792;2024-01-15T13:28:24;96329.69;;;11.15;38.15
57086;BME280;42964;42.910;23.792;2024-01-15T13:33:23;96314.75;;;10.90;39.04
57086;BME280;42964;42.910;23.792;2024-01-15T13:38:22;96291.31;;;10.57;38.82
57086;BME280;42964;42.910;23.792;2024-01-15T13:43:21;96304.75;;;10.37;38.53
57086;BME280;42964;42.910;23.792;2024-01-15T13:48:20;96301.72;;;10.20;39.38
57086;BME280;42964;42.910;23.792;2024-01-15T13:53:19;96332.22;;;10.07;39.49
57086;BME280;42964;42.910;23.792;2024-01-15T13:58:18;96310.25;;;9.85;39.85
57086;BME280;42964;42.910;23.792;2024-01-15T14:03:17;96303.81;;;9.62;40.09
57086;BME280;42964;42.910;23.792;2024-01-15T14:08:16;96309.19;;;9.53;39.75
57086;BME280;42964;42.910;23.792;2024-01-15T14:13:15;96311.94;;;9.45;39.96
57086;BME280;42964;42.910;23.792;2024-01-15T14:18:14;96310.28;;;9.41;40.43
57086;BME280;42964;42.910;23.792;2024-01-15T14:23:13;96231.94;;;8.86;40.66
57086;BME280;42964;42.910;23.792;2024-01-15T14:28:12;96313.16;;;9.24;41.09
57086;BME280;42964;42.910;23.792;2024-01-15T14:33:11;96308.16;;;9.15;40.80
57086;BME280;42964;42.910;23.792;2024-01-15T14:38:10;96315.69;;;9.29;40.47
57086;BME280;42964;42.910;23.792;2024-01-15T14:43:10;96314.84;;;9.25;40.47
57086;BME280;42964;42.910;23.792;2024-01-15T14:48:09;96311.38;;;9.28;40.69
57086;BME280;42964;42.910;23.792;2024-01-15T14:53:08;96272.44;;;8.87;40.93
57086;BME280;42964;42.910;23.792;2024-01-15T14:58:07;96237.47;;;8.66;41.47
57086;BME280;42964;42.910;23.792;2024-01-15T15:03:06;96272.59;;;8.78;42.02
57086;BME280;42964;42.910;23.792;2024-01-15T15:08:05;96267.59;;;8.69;42.13
57086;BME280;42964;42.910;23.792;2024-01-15T15:13:07;96258.22;;;8.62;42.40
57086;BME280;42964;42.910;23.792;2024-01-15T15:18:06;96304.75;;;8.65;42.58
57086;BME280;42964;42.910;23.792;2024-01-15T15:23:05;96273.94;;;8.51;42.41
57086;BME280;42964;42.910;23.792;2024-01-15T15:28:07;96279.06;;;8.54;42.58
57086;BME280;42964;42.910;23.792;2024-01-15T15:33:07;96276.53;;;8.49;42.81
57086;BME280;42964;42.910;23.792;2024-01-15T15:38:06;96234.81;;;8.20;42.87
57086;BME280;42964;42.910;23.792;2024-01-15T15:43:05;96257.81;;;8.35;43.22
57086;BME280;42964;42.910;23.792;2024-01-15T15:48:04;96266.50;;;8.31;43.04
57086;BME280;42964;42.910;23.792;2024-01-15T15:53:03;96254.56;;;8.24;43.21
57086;BME280;42964;42.910;23.792;2024-01-15T15:58:03;96243.44;;;8.19;43.80
57086;BME280;42964;42.910;23.792;2024-01-15T16:03:02;96185.44;;;7.84;43.89
57086;BME280;42964;42.910;23.792;2024-01-15T16:08:02;96211.28;;;7.82;44.28
57086;BME280;42964;42.910;23.792;2024-01-15T16:13:01;96214.66;;;7.87;44.14
57086;BME280;42964;42.910;23.792;2024-01-15T16:18:00;96222.19;;;8.01;44.16
57086;BME280;42964;42.910;23.792;2024-01-15T16:22:59;96212.72;;;8.00;44.01
57086;BME280;42964;42.910;23.792;2024-01-15T16:27:58;96220.19;;;8.19;44.40
57086;BME280;42964;42.910;23.792;2024-01-15T16:32:57;96169.94;;;7.85;44.43
57086;BME280;42964;42.910;23.792;2024-01-15T16:37:59;96122.91;;;7.63;44.39
57086;BME280;42964;42.910;23.792;2024-01-15T16:42:58;96208.06;;;8.22;44.27
57086;BME280;42964;42.910;23.792;2024-01-15T16:47:57;96189.19;;;8.19;44.54
57086;BME280;42964;42.910;23.792;2024-01-15T16:52:56;96209.84;;;8.19;44.46
57086;BME280;42964;42.910;23.792;2024-01-15T16:57:56;96198.75;;;8.14;44.73
57086;BME280;42964;42.910;23.792;2024-01-15T17:02:55;96207.94;;;8.30;44.22
57086;BME280;42964;42.910;23.792;2024-01-15T17:07:54;96192.75;;;8.13;44.16
57086;BME280;42964;42.910;23.792;2024-01-15T17:12:53;96201.34;;;8.14;44.71
57086;BME280;42964;42.910;23.792;2024-01-15T17:17:52;96211.53;;;8.23;44.17
57086;BME280;42964;42.910;23.792;2024-01-15T17:22:51;96209.94;;;8.14;44.73
57086;BME280;42964;42.910;23.792;2024-01-15T17:27:50;96207.34;;;8.13;44.17
57086;BME280;42964;42.910;23.792;2024-01-15T17:32:49;96196.13;;;8.15;44.13
57086;BME280;42964;42.910;23.792;2024-01-15T17:37:48;96152.78;;;7.81;44.27
57086;BME280;42964;42.910;23.792;2024-01-15T17:42:48;96144.06;;;7.87;44.27
57086;BME280;42964;42.910;23.792;2024-01-15T17:47:49;96182.63;;;7.99;44.64
57086;BME280;42964;42.910;23.792;2024-01-15T17:52:48;96180.97;;;7.95;44.67
57086;BME280;42964;42.910;23.792;2024-01-15T17:57:47;96172.41;;;7.92;44.90
57086;BME280;42964;42.910;23.792;2024-01-15T18:02:46;96167.16;;;7.96;44.30
57086;BME280;42964;42.910;23.792;2024-01-15T18:07:45;96158.63;;;7.93;44.05
57086;BME280;42964;42.910;23.792;2024-01-15T18:12:48;96103.84;;;7.74;44.32
57086;BME280;42964;42.910;23.792;2024-01-15T18:17:46;96117.44;;;7.85;44.77
57086;BME280;42964;42.910;23.792;2024-01-15T18:22:49;96143.88;;;7.99;44.50
57086;BME280;42964;42.910;23.792;2024-01-15T18:27:48;96132.50;;;8.09;44.49
57086;BME280;42964;42.910;23.792;2024-01-15T18:32:47;96087.44;;;7.76;44.81
57086;BME280;42964;42.910;23.792;2024-01-15T18:37:46;95925.41;;;6.90;44.45
57086;BME280;42964;42.910;23.792;2024-01-15T18:42:45;96134.47;;;7.95;45.54
57086;BME280;42964;42.910;23.792;2024-01-15T18:47:44;96132.72;;;7.97;45.43
57086;BME280;42964;42.910;23.792;2024-01-15T18:52:43;96113.00;;;7.92;45.23
57086;BME280;42964;42.910;23.792;2024-01-15T18:57:43;96142.00;;;8.09;45.66
57086;BME280;42964;42.910;23.792;2024-01-15T19:02:42;96144.50;;;8.12;45.36
57086;BME280;42964;42.910;23.792;2024-01-15T19:07:41;95979.31;;;7.05;45.20
57086;BME280;42964;42.910;23.792;2024-01-15T19:12:44;96151.72;;;7.93;45.27
57086;BME280;42964;42.910;23.792;2024-01-15T19:17:43;96162.03;;;7.93;45.46
57086;BME280;42964;42.910;23.792;2024-01-15T19:22:43;96135.53;;;7.83;45.39
57086;BME280;42964;42.910;23.792;2024-01-15T19:27:42;96153.53;;;7.88;45.10
57086;BME280;42964;42.910;23.792;2024-01-15T19:32:43;96122.28;;;7.51;46.57
57086;BME280;42964;42.910;23.792;2024-01-15T19:37:42;96189.75;;;7.85;47.61
57086;BME280;42964;42.910;23.792;2024-01-15T19:42:41;96203.69;;;7.72;49.31
57086;BME280;42964;42.910;23.792;2024-01-15T19:47:40;96140.69;;;7.21;52.69
57086;BME280;42964;42.910;23.792;2024-01-15T19:52:39;96206.88;;;7.27;56.71
57086;BME280;42964;42.910;23.792;2024-01-15T19:57:39;96170.16;;;7.05;58.21
57086;BME280;42964;42.910;23.792;2024-01-15T20:02:38;96173.66;;;7.01;59.13
57086;BME280;42964;42.910;23.792;2024-01-15T20:07:37;96185.00;;;6.88;58.99
57086;BME280;42964;42.910;23.792;2024-01-15T20:12:37;95988.03;;;5.60;59.16
57086;BME280;42964;42.910;23.792;2024-01-15T20:17:39;96112.53;;;6.36;59.26
57086;BME280;42964;42.910;23.792;2024-01-15T20:22:39;96150.25;;;6.44;59.45
57086;BME280;42964;42.910;23.792;2024-01-15T20:27:38;96139.09;;;6.42;59.79
57086;BME280;42964;42.910;23.792;2024-01-15T20:32:37;96114.31;;;6.33;60.54
57086;BME280;42964;42.910;23.792;2024-01-15T20:37:36;96086.16;;;6.14;61.84
57086;BME280;42964;42.910;23.792;2024-01-15T20:42:35;96074.03;;;6.23;62.08
57086;BME280;42964;42.910;23.792;2024-01-15T20:47:34;96085.03;;;6.40;63.38
57086;BME280;42964;42.910;23.792;2024-01-15T20:52:33;96054.38;;;6.14;63.85
57086;BME280;42964;42.910;23.792;2024-01-15T20:57:33;96056.84;;;6.25;64.39
57086;BME280;42964;42.910;23.792;2024-01-15T21:02:32;96069.59;;;6.38;63.66
57086;BME280;42964;42.910;23.792;2024-01-15T21:07:31;96027.78;;;6.15;63.20
57086;BME280;42964;42.910;23.792;2024-01-15T21:12:30;96084.00;;;6.53;62.58
57086;BME280;42964;42.910;23.792;2024-01-15T21:17:29;96081.13;;;6.76;61.75
57086;BME280;42964;42.910;23.792;2024-01-15T21:22:28;96104.28;;;6.82;61.03
57086;BME280;42964;42.910;23.792;2024-01-15T21:27:27;96074.13;;;6.88;59.71
57086;BME280;42964;42.910;23.792;2024-01-15T21:32:26;96041.50;;;6.83;59.60
57086;BME280;42964;42.910;23.792;2024-01-15T21:37:25;95862.44;;;5.90;58.61
57086;BME280;42964;42.910;23.792;2024-01-15T21:42:25;95954.34;;;6.50;58.28
57086;BME280;42964;42.910;23.792;2024-01-15T21:47:24;96046.34;;;7.05;58.80
57086;BME280;42964;42.910;23.792;2024-01-15T21:52:24;96044.53;;;7.13;58.19
57086;BME280;42964;42.910;23.792;2024-01-15T21:57:23;96028.78;;;7.32;57.29
57086;BME280;42964;42.910;23.792;2024-01-15T22:02:22;96054.41;;;7.44;57.04
57086;BME280;42964;42.910;23.792;2024-01-15T22:07:21;96017.56;;;7.33;57.56
57086;BME280;42964;42.910;23.792;2024-01-15T22:12:23;96027.06;;;7.31;57.05
57086;BME280;42964;42.910;23.792;2024-01-15T22:17:22;96009.81;;;7.33;57.27
57086;BME280;42964;42.910;23.792;2024-01-15T22:22:21;96001.13;;;7.40;58.01
57086;BME280;42964;42.910;23.792;2024-01-15T22:27:21;95996.00;;;7.37;57.21
57086;BME280;42964;42.910;23.792;2024-01-15T22:32:19;96020.84;;;7.44;56.92
57086;BME280;42964;42.910;23.792;2024-01-15T22:37:18;96013.94;;;7.48;57.26
57086;BME280;42964;42.910;23.792;2024-01-15T22:42:17;95990.78;;;7.43;56.62
57086;BME280;42964;42.910;23.792;2024-01-15T22:47:17;95993.81;;;7.66;56.60
57086;BME280;42964;42.910;23.792;2024-01-15T22:52:17;96009.16;;;7.73;56.40
57086;BME280;42964;42.910;23.792;2024-01-15T22:57:16;96008.56;;;7.58;56.96
57086;BME280;42964;42.910;23.792;2024-01-15T23:02:15;95857.69;;;6.78;56.19
57086;BME280;42964;42.910;23.792;2024-01-15T23:07:14;95722.50;;;5.95;55.38
57086;BME280;42964;42.910;23.792;2024-01-15T23:12:13;96052.66;;;7.96;55.77
57086;BME280;42964;42.910;23.792;2024-01-15T23:17:12;96038.19;;;7.87;55.38
57086;BME280;42964;42.910;23.792;2024-01-15T23:22:11;95950.47;;;7.33;55.78
57086;BME280;42964;42.910;23.792;2024-01-15T23:27:11;96036.66;;;7.75;56.11
57086;BME280;42964;42.910;23.792;2024-01-15T23:32:10;96037.66;;;7.68;56.11
57086;BME280;42964;42.910;23.792;2024-01-15T23:37:10;96015.59;;;7.50;56.84
57086;BME280;42964;42.910;23.792;2024-01-15T23:42:09;95960.66;;;7.42;56.38
57086;BME280;42964;42.910;23.792;2024-01-15T23:47:07;95986.94;;;7.65;56.20
57086;BME280;42964;42.910;23.792;2024-01-15T23:52:06;96034.72;;;7.88;56.33
57086;BME280;42964;42.910;23.792;2024-01-15T23:57:06;96025.19;;;7.92;55.66
